Aérodrome :
LOGIN :

S'inscrire | Disclaimer

   EN    FR    IT 

 










Légende :    VFR   VFR Marginal   IFR   IFR Intensif   IFR Très Intensif
Visi : 
Plafond : 
>= 8 km
>= 3000ft
5 à 8 km
1000 à 3000 ft
1500m à 5 km
500 à 1000 ft
800 à 1500m
200 à 500 ft
< 800m
< 200 ft
Symboles :   Orages  Brouillard  Fortes neiges  Fortes précipitations  Vent > 20 kt
SIGMETs :   Divers  Orages  Givrage  Turbulence  Onde Orograph.  Cendres Volcan.






- Altitude de l'aérodrome : 1367 ft
- Code IATA : FDH


EDNY - Friedrichshafen

DERNIER METAR :
  • 041550Z AUTO VRB02KT 9999 // FEW007/// SCT009/// OVC057/// 16/13 Q1014

METARs EXPIRÉS :
  • 041520Z AUTO VRB02KT 9999 // FEW006/// BKN009/// OVC082/// 16/15 Q1014
  • 041450Z 00000KT 9999 -RA SCT010 OVC060 16/14 Q1014
  • 041420Z 19003KT 9999 -RA SCT046 OVC059 16/14 Q1014
  • 041350Z VRB02KT 9999 -RA FEW016 OVC047 17/14 Q1014
  • 041320Z 26003KT 9999 -RA SCT016 BKN024 OVC047 17/14 Q1014
  • 041250Z VRB02KT 9999 -RA BKN016 BKN048 17/14 Q1014

TAF TAF EDNY
Valide du 04 à 12h jusqu'au 05 à 12h UTC


041100Z 0412/0512 VRB03KT 9999 BKN025
PROB30
TEMPO 0412/0424 RA
TEMPO 0500/0506 4000 -RA BKN008
PROB30
TEMPO 0510/0512 25015G25KT TSRA BKN025CB



MET'MAP, la Météo Aéronautique d'un coup d'oeil ! - Copyright ORBIFLY Décembre 2007 - Disclaimer

ORBIFLY MET'MAP TEAM :

Programmation & Développement : Alexandra Zaïnal
Sur une idée originale de : Baudouin d'Aumeries
Assistance à la programmation : Marc-Olivier Méhu
Soutien technique & logistique : Manuel Goepfert

Contact : metmap@orbifly.com




SOURCES & CREDITS :

   NOAA